sensor_id;sensor_type;location;lat;lon;timestamp;pressure;altitude;pressure_sealevel;temperature;humidity
43155;BME280;34212;51.018;13.586;2023-06-14T00:00:40;97810.38;;;16.37;44.09
43155;BME280;34212;51.018;13.586;2023-06-14T00:05:42;97807.50;;;16.32;44.34
43155;BME280;34212;51.018;13.586;2023-06-14T00:10:44;97816.22;;;16.27;44.08
43155;BME280;34212;51.018;13.586;2023-06-14T00:15:46;97804.88;;;16.19;44.42
43155;BME280;34212;51.018;13.586;2023-06-14T00:20:48;97798.50;;;16.13;44.67
43155;BME280;34212;51.018;13.586;2023-06-14T00:25:50;97798.53;;;16.06;44.61
43155;BME280;34212;51.018;13.586;2023-06-14T00:30:51;97793.59;;;16.03;44.67
43155;BME280;34212;51.018;13.586;2023-06-14T00:35:53;97798.81;;;15.98;44.77
43155;BME280;34212;51.018;13.586;2023-06-14T00:40:55;97805.22;;;15.90;44.72
43155;BME280;34212;51.018;13.586;2023-06-14T00:45:56;97803.63;;;15.83;45.44
43155;BME280;34212;51.018;13.586;2023-06-14T00:50:58;97796.63;;;15.75;45.43
43155;BME280;34212;51.018;13.586;2023-06-14T00:56:03;97794.56;;;15.70;45.33
43155;BME280;34212;51.018;13.586;2023-06-14T01:01:04;97793.28;;;15.66;45.46
43155;BME280;34212;51.018;13.586;2023-06-14T01:06:15;97792.06;;;15.62;45.70
43155;BME280;34212;51.018;13.586;2023-06-14T01:11:31;97784.44;;;15.59;45.92
43155;BME280;34212;51.018;13.586;2023-06-14T01:16:34;97783.00;;;15.57;45.42
43155;BME280;34212;51.018;13.586;2023-06-14T01:21:37;97778.88;;;15.54;45.89
43155;BME280;34212;51.018;13.586;2023-06-14T01:26:43;97779.28;;;15.51;45.70
43155;BME280;34212;51.018;13.586;2023-06-14T01:31:47;97775.38;;;15.47;45.62
43155;BME280;34212;51.018;13.586;2023-06-14T01:36:49;97771.69;;;15.41;45.81
43155;BME280;34212;51.018;13.586;2023-06-14T01:41:51;97768.63;;;15.31;46.10
43155;BME280;34212;51.018;13.586;2023-06-14T01:46:53;97769.88;;;15.22;45.89
43155;BME280;34212;51.018;13.586;2023-06-14T01:51:56;97772.38;;;15.10;46.11
43155;BME280;34212;51.018;13.586;2023-06-14T01:56:58;97761.03;;;15.01;46.47
43155;BME280;34212;51.018;13.586;2023-06-14T02:02:01;97771.16;;;14.99;45.83
43155;BME280;34212;51.018;13.586;2023-06-14T02:07:02;97775.09;;;14.97;46.11
43155;BME280;34212;51.018;13.586;2023-06-14T02:12:04;97779.63;;;14.96;46.36
43155;BME280;34212;51.018;13.586;2023-06-14T02:17:06;97778.19;;;14.94;46.20
43155;BME280;34212;51.018;13.586;2023-06-14T02:22:08;97784.59;;;14.93;46.37
43155;BME280;34212;51.018;13.586;2023-06-14T02:27:09;97777.38;;;14.87;46.95
43155;BME280;34212;51.018;13.586;2023-06-14T02:32:13;97784.59;;;14.79;46.94
43155;BME280;34212;51.018;13.586;2023-06-14T02:37:15;97794.72;;;14.77;46.72
43155;BME280;34212;51.018;13.586;2023-06-14T02:42:17;97791.41;;;14.75;46.95
43155;BME280;34212;51.018;13.586;2023-06-14T02:47:18;97793.28;;;14.75;47.01
43155;BME280;34212;51.018;13.586;2023-06-14T02:52:20;97803.38;;;14.73;46.64
43155;BME280;34212;51.018;13.586;2023-06-14T02:57:23;97801.34;;;14.68;47.19
43155;BME280;34212;51.018;13.586;2023-06-14T03:02:25;97794.72;;;14.64;47.04
43155;BME280;34212;51.018;13.586;2023-06-14T03:07:27;97798.84;;;14.60;46.74
43155;BME280;34212;51.018;13.586;2023-06-14T03:12:32;97793.88;;;14.57;47.13
43155;BME280;34212;51.018;13.586;2023-06-14T03:17:33;97803.38;;;14.53;47.27
43155;BME280;34212;51.018;13.586;2023-06-14T03:22:38;97796.75;;;14.49;47.22
43155;BME280;34212;51.018;13.586;2023-06-14T03:27:40;97793.44;;;14.47;47.17
43155;BME280;34212;51.018;13.586;2023-06-14T03:32:42;97795.50;;;14.45;47.11
43155;BME280;34212;51.018;13.586;2023-06-14T03:37:44;97821.72;;;14.43;47.31
43155;BME280;34212;51.018;13.586;2023-06-14T03:42:46;97816.13;;;14.44;47.62
43155;BME280;34212;51.018;13.586;2023-06-14T03:47:48;97824.19;;;14.44;47.17
43155;BME280;34212;51.018;13.586;2023-06-14T03:52:50;97845.47;;;14.46;47.67
43155;BME280;34212;51.018;13.586;2023-06-14T03:57:53;97848.97;;;14.46;47.75
43155;BME280;34212;51.018;13.586;2023-06-14T04:02:55;97855.78;;;14.49;47.59
43155;BME280;34212;51.018;13.586;2023-06-14T04:07:57;97859.09;;;14.51;47.83
43155;BME280;34212;51.018;13.586;2023-06-14T04:13:00;97855.78;;;14.49;48.12
43155;BME280;34212;51.018;13.586;2023-06-14T04:18:01;97862.16;;;14.41;48.36
43155;BME280;34212;51.018;13.586;2023-06-14T04:23:15;97867.72;;;14.40;48.93
43155;BME280;34212;51.018;13.586;2023-06-14T04:28:20;97865.66;;;14.42;49.15
43155;BME280;34212;51.018;13.586;2023-06-14T04:33:22;97864.44;;;14.44;49.31
43155;BME280;34212;51.018;13.586;2023-06-14T04:38:27;97867.53;;;14.48;49.12
43155;BME280;34212;51.018;13.586;2023-06-14T04:43:31;97864.47;;;14.51;49.46
43155;BME280;34212;51.018;13.586;2023-06-14T04:48:33;97871.09;;;14.55;49.25
43155;BME280;34212;51.018;13.586;2023-06-14T04:53:34;97866.56;;;14.62;49.32
43155;BME280;34212;51.018;13.586;2023-06-14T04:58:37;97868.84;;;14.72;49.06
43155;BME280;34212;51.018;13.586;2023-06-14T05:03:39;97883.50;;;14.83;49.14
43155;BME280;34212;51.018;13.586;2023-06-14T05:08:42;97891.78;;;14.94;49.39
43155;BME280;34212;51.018;13.586;2023-06-14T05:13:45;97884.34;;;15.03;49.86
43155;BME280;34212;51.018;13.586;2023-06-14T05:18:47;97885.81;;;15.06;50.25
43155;BME280;34212;51.018;13.586;2023-06-14T05:23:48;97895.50;;;15.13;50.07
43155;BME280;34212;51.018;13.586;2023-06-14T05:28:50;97892.22;;;15.18;50.48
43155;BME280;34212;51.018;13.586;2023-06-14T05:33:53;97893.84;;;15.25;50.43
43155;BME280;34212;51.018;13.586;2023-06-14T05:38:56;97897.56;;;15.38;50.20
43155;BME280;34212;51.018;13.586;2023-06-14T05:44:01;97896.72;;;15.51;50.44
43155;BME280;34212;51.018;13.586;2023-06-14T05:49:02;97900.03;;;15.59;50.37
43155;BME280;34212;51.018;13.586;2023-06-14T05:54:03;97907.50;;;15.70;50.58
43155;BME280;34212;51.018;13.586;2023-06-14T05:59:05;97903.53;;;15.80;50.63
43155;BME280;34212;51.018;13.586;2023-06-14T06:04:06;97909.94;;;15.92;50.57
43155;BME280;34212;51.018;13.586;2023-06-14T06:09:08;97910.72;;;15.99;50.57
43155;BME280;34212;51.018;13.586;2023-06-14T06:14:10;97909.25;;;16.03;50.86
43155;BME280;34212;51.018;13.586;2023-06-14T06:19:11;97921.44;;;16.12;50.77
43155;BME280;34212;51.018;13.586;2023-06-14T06:24:12;97930.91;;;16.22;50.92
43155;BME280;34212;51.018;13.586;2023-06-14T06:29:14;97929.22;;;16.34;50.64
43155;BME280;34212;51.018;13.586;2023-06-14T06:34:15;97936.00;;;16.43;51.01
43155;BME280;34212;51.018;13.586;2023-06-14T06:39:17;97944.44;;;16.53;50.95
43155;BME280;34212;51.018;13.586;2023-06-14T06:44:18;97944.41;;;16.60;51.10
43155;BME280;34212;51.018;13.586;2023-06-14T06:49:23;97952.00;;;16.70;51.40
43155;BME280;34212;51.018;13.586;2023-06-14T06:54:25;97953.25;;;16.80;51.33
43155;BME280;34212;51.018;13.586;2023-06-14T06:59:26;97958.78;;;16.92;51.16
43155;BME280;34212;51.018;13.586;2023-06-14T07:04:28;97952.91;;;17.02;51.07
43155;BME280;34212;51.018;13.586;2023-06-14T07:09:29;97950.78;;;17.11;51.16
43155;BME280;34212;51.018;13.586;2023-06-14T07:14:30;97961.88;;;17.21;51.15
43155;BME280;34212;51.018;13.586;2023-06-14T07:19:32;97960.16;;;17.33;50.94
43155;BME280;34212;51.018;13.586;2023-06-14T07:24:34;97961.72;;;17.41;51.03
43155;BME280;34212;51.018;13.586;2023-06-14T07:29:37;97964.34;;;17.54;50.94
43155;BME280;34212;51.018;13.586;2023-06-14T07:34:39;97967.72;;;17.68;50.82
43155;BME280;34212;51.018;13.586;2023-06-14T07:39:40;97971.38;;;17.80;50.68
43155;BME280;34212;51.018;13.586;2023-06-14T07:44:42;97967.53;;;17.94;50.72
43155;BME280;34212;51.018;13.586;2023-06-14T07:49:43;97971.09;;;18.07;50.59
43155;BME280;34212;51.018;13.586;2023-06-14T07:54:45;97968.72;;;18.17;50.56
43155;BME280;34212;51.018;13.586;2023-06-14T07:59:46;97973.81;;;18.25;50.51
43155;BME280;34212;51.018;13.586;2023-06-14T08:04:48;97975.78;;;18.36;50.09
43155;BME280;34212;51.018;13.586;2023-06-14T08:09:49;97974.78;;;18.49;50.04
43155;BME280;34212;51.018;13.586;2023-06-14T08:14:51;97970.88;;;18.63;49.91
43155;BME280;34212;51.018;13.586;2023-06-14T08:20:13;97974.69;;;18.74;49.79
43155;BME280;34212;51.018;13.586;2023-06-14T08:25:18;97974.97;;;18.84;49.80
43155;BME280;34212;51.018;13.586;2023-06-14T08:30:20;97974.00;;;18.97;49.49
43155;BME280;34212;51.018;13.586;2023-06-14T08:35:22;97970.41;;;19.27;49.24
43155;BME280;34212;51.018;13.586;2023-06-14T08:40:24;97965.69;;;19.64;48.99
43155;BME280;34212;51.018;13.586;2023-06-14T08:45:25;97968.41;;;19.76;48.33
43155;BME280;34212;51.018;13.586;2023-06-14T08:50:29;97966.19;;;19.84;48.28
43155;BME280;34212;51.018;13.586;2023-06-14T08:55:33;97968.28;;;19.82;47.98
43155;BME280;34212;51.018;13.586;2023-06-14T09:00:38;97964.50;;;19.83;48.04
43155;BME280;34212;51.018;13.586;2023-06-14T09:05:40;97968.03;;;19.84;47.64
43155;BME280;34212;51.018;13.586;2023-06-14T09:10:41;97978.19;;;19.89;47.30
43155;BME280;34212;51.018;13.586;2023-06-14T09:15:43;97977.69;;;19.92;47.05
43155;BME280;34212;51.018;13.586;2023-06-14T09:20:44;97975.94;;;19.97;46.90
43155;BME280;34212;51.018;13.586;2023-06-14T09:25:48;97985.44;;;20.00;46.67
43155;BME280;34212;51.018;13.586;2023-06-14T09:30:49;97991.00;;;20.05;46.23
43155;BME280;34212;51.018;13.586;2023-06-14T09:35:51;97982.75;;;20.12;46.12
43155;BME280;34212;51.018;13.586;2023-06-14T09:40:55;97975.56;;;20.17;46.02
43155;BME280;34212;51.018;13.586;2023-06-14T09:45:57;97977.91;;;20.25;45.91
43155;BME280;34212;51.018;13.586;2023-06-14T09:50:58;97964.31;;;20.37;45.73
43155;BME280;34212;51.018;13.586;2023-06-14T09:56:00;97952.31;;;20.57;45.60
43155;BME280;34212;51.018;13.586;2023-06-14T10:01:02;97959.03;;;20.83;45.56
43155;BME280;34212;51.018;13.586;2023-06-14T10:06:04;97963.31;;;21.07;45.30
43155;BME280;34212;51.018;13.586;2023-06-14T10:11:08;97959.06;;;21.28;45.11
43155;BME280;34212;51.018;13.586;2023-06-14T10:16:15;97951.34;;;21.37;45.00
43155;BME280;34212;51.018;13.586;2023-06-14T10:21:21;97959.00;;;21.40;44.81
43155;BME280;34212;51.018;13.586;2023-06-14T10:26:23;97961.72;;;21.40;44.96
43155;BME280;34212;51.018;13.586;2023-06-14T10:31:43;97963.03;;;21.54;44.43
43155;BME280;34212;51.018;13.586;2023-06-14T10:36:45;97961.81;;;21.45;44.56
43155;BME280;34212;51.018;13.586;2023-06-14T10:41:52;97965.50;;;21.39;44.16
43155;BME280;34212;51.018;13.586;2023-06-14T10:46:53;97963.03;;;21.09;44.42
43155;BME280;34212;51.018;13.586;2023-06-14T10:51:55;97966.38;;;20.99;44.42
43155;BME280;34212;51.018;13.586;2023-06-14T10:56:58;97963.59;;;20.94;44.09
43155;BME280;34212;51.018;13.586;2023-06-14T11:07:42;97954.78;;;21.15;44.02
43155;BME280;34212;51.018;13.586;2023-06-14T11:12:48;97960.03;;;21.22;43.58
43155;BME280;34212;51.018;13.586;2023-06-14T11:17:53;97961.34;;;21.19;43.73
43155;BME280;34212;51.018;13.586;2023-06-14T11:22:54;97949.53;;;21.26;43.77
43155;BME280;34212;51.018;13.586;2023-06-14T11:27:56;97951.38;;;21.54;43.77
43155;BME280;34212;51.018;13.586;2023-06-14T11:32:58;97944.47;;;21.63;43.55
43155;BME280;34212;51.018;13.586;2023-06-14T11:38:01;97956.13;;;21.63;43.60
43155;BME280;34212;51.018;13.586;2023-06-14T11:43:02;97951.13;;;21.55;43.67
43155;BME280;34212;51.018;13.586;2023-06-14T11:48:04;97959.75;;;21.52;43.78
43155;BME280;34212;51.018;13.586;2023-06-14T11:53:06;97957.72;;;21.59;43.67
43155;BME280;34212;51.018;13.586;2023-06-14T11:58:11;97956.47;;;21.50;43.66
43155;BME280;34212;51.018;13.586;2023-06-14T12:03:13;97953.63;;;21.28;43.91
43155;BME280;34212;51.018;13.586;2023-06-14T12:08:14;97949.16;;;21.05;44.14
43155;BME280;34212;51.018;13.586;2023-06-14T12:13:18;97953.47;;;20.89;44.22
43155;BME280;34212;51.018;13.586;2023-06-14T12:18:21;97961.41;;;20.79;44.40
43155;BME280;34212;51.018;13.586;2023-06-14T12:23:39;97951.59;;;20.90;44.35
43155;BME280;34212;51.018;13.586;2023-06-14T12:28:41;97955.16;;;21.07;44.18
43155;BME280;34212;51.018;13.586;2023-06-14T12:33:44;97960.94;;;21.28;44.08
43155;BME280;34212;51.018;13.586;2023-06-14T12:38:47;97952.19;;;21.54;44.08
43155;BME280;34212;51.018;13.586;2023-06-14T12:43:49;97936.59;;;22.00;43.93
43155;BME280;34212;51.018;13.586;2023-06-14T12:48:50;97947.91;;;22.31;43.84
43155;BME280;34212;51.018;13.586;2023-06-14T12:53:51;97941.50;;;22.42;43.74
43155;BME280;34212;51.018;13.586;2023-06-14T12:58:53;97949.75;;;22.47;43.92
43155;BME280;34212;51.018;13.586;2023-06-14T13:03:54;97941.00;;;22.45;43.89
43155;BME280;34212;51.018;13.586;2023-06-14T13:08:56;97944.88;;;22.71;43.54
43155;BME280;34212;51.018;13.586;2023-06-14T13:13:59;97945.63;;;23.80;42.33
43155;BME280;34212;51.018;13.586;2023-06-14T13:19:04;97929.72;;;24.67;41.04
43155;BME280;34212;51.018;13.586;2023-06-14T13:24:05;97939.03;;;24.71;40.66
43155;BME280;34212;51.018;13.586;2023-06-14T13:29:07;97933.38;;;24.30;40.99
43155;BME280;34212;51.018;13.586;2023-06-14T13:34:08;97922.56;;;23.93;41.51
43155;BME280;34212;51.018;13.586;2023-06-14T13:39:09;97927.56;;;23.69;41.93
43155;BME280;34212;51.018;13.586;2023-06-14T13:44:12;97918.66;;;23.46;42.02
43155;BME280;34212;51.018;13.586;2023-06-14T13:49:17;97919.84;;;23.61;41.79
43155;BME280;34212;51.018;13.586;2023-06-14T13:54:21;97923.66;;;23.60;41.76
43155;BME280;34212;51.018;13.586;2023-06-14T13:59:23;97931.00;;;23.27;42.34
43155;BME280;34212;51.018;13.586;2023-06-14T14:04:24;97922.13;;;22.82;42.70
43155;BME280;34212;51.018;13.586;2023-06-14T14:09:25;97924.31;;;22.58;42.92
43155;BME280;34212;51.018;13.586;2023-06-14T14:14:27;97921.75;;;22.74;42.67
43155;BME280;34212;51.018;13.586;2023-06-14T14:19:29;97911.13;;;22.94;42.42
43155;BME280;34212;51.018;13.586;2023-06-14T14:24:30;97906.22;;;23.23;42.05
43155;BME280;34212;51.018;13.586;2023-06-14T14:29:32;97911.31;;;23.47;41.90
43155;BME280;34212;51.018;13.586;2023-06-14T14:34:33;97914.78;;;23.37;41.93
43155;BME280;34212;51.018;13.586;2023-06-14T14:39:36;97917.75;;;23.03;42.18
43155;BME280;34212;51.018;13.586;2023-06-14T14:44:38;97911.09;;;22.67;42.45
43155;BME280;34212;51.018;13.586;2023-06-14T14:49:39;97915.84;;;22.55;42.61
43155;BME280;34212;51.018;13.586;2023-06-14T14:54:41;97906.22;;;22.69;42.18
43155;BME280;34212;51.018;13.586;2023-06-14T14:59:42;97903.19;;;22.93;42.01
43155;BME280;34212;51.018;13.586;2023-06-14T15:04:44;97902.66;;;23.18;41.43
43155;BME280;34212;51.018;13.586;2023-06-14T15:09:46;97891.06;;;23.33;41.40
43155;BME280;34212;51.018;13.586;2023-06-14T15:14:52;97902.75;;;23.28;41.41
43155;BME280;34212;51.018;13.586;2023-06-14T15:19:53;97901.06;;;23.27;41.39
43155;BME280;34212;51.018;13.586;2023-06-14T15:24:55;97894.88;;;23.32;41.10
43155;BME280;34212;51.018;13.586;2023-06-14T15:29:56;97900.53;;;23.25;41.06
43155;BME280;34212;51.018;13.586;2023-06-14T15:34:58;97889.91;;;23.23;41.02
43155;BME280;34212;51.018;13.586;2023-06-14T15:39:59;97890.13;;;23.49;40.87
43155;BME280;34212;51.018;13.586;2023-06-14T15:45:01;97896.44;;;23.60;40.68
43155;BME280;34212;51.018;13.586;2023-06-14T15:50:02;97899.06;;;23.44;40.39
43155;BME280;34212;51.018;13.586;2023-06-14T15:55:06;97898.06;;;23.23;40.44
43155;BME280;34212;51.018;13.586;2023-06-14T16:00:08;97894.69;;;23.11;40.14
43155;BME280;34212;51.018;13.586;2023-06-14T16:05:11;97889.06;;;23.18;39.83
43155;BME280;34212;51.018;13.586;2023-06-14T16:10:12;97891.41;;;23.41;39.77
43155;BME280;34212;51.018;13.586;2023-06-14T16:15:14;97877.09;;;23.98;39.57
43155;BME280;34212;51.018;13.586;2023-06-14T16:20:16;97888.81;;;24.67;39.02
43155;BME280;34212;51.018;13.586;2023-06-14T16:25:18;97887.56;;;25.31;38.53
43155;BME280;34212;51.018;13.586;2023-06-14T16:30:19;97884.03;;;25.46;38.02
43155;BME280;34212;51.018;13.586;2023-06-14T16:35:21;97886.44;;;24.96;38.52
43155;BME280;34212;51.018;13.586;2023-06-14T16:40:25;97887.31;;;24.29;39.20
43155;BME280;34212;51.018;13.586;2023-06-14T16:45:26;97898.94;;;24.09;39.12
43155;BME280;34212;51.018;13.586;2023-06-14T16:50:28;97903.88;;;24.12;38.91
43155;BME280;34212;51.018;13.586;2023-06-14T16:55:29;97911.72;;;24.66;38.19
43155;BME280;34212;51.018;13.586;2023-06-14T17:00:32;97904.91;;;24.63;37.80
43155;BME280;34212;51.018;13.586;2023-06-14T17:05:34;97905.97;;;24.57;37.80
43155;BME280;34212;51.018;13.586;2023-06-14T17:10:35;97905.31;;;25.18;37.36
43155;BME280;34212;51.018;13.586;2023-06-14T17:15:37;97912.97;;;25.37;37.11
43155;BME280;34212;51.018;13.586;2023-06-14T17:20:38;97910.75;;;25.08;37.70
43155;BME280;34212;51.018;13.586;2023-06-14T17:25:39;97925.91;;;24.63;37.77
43155;BME280;34212;51.018;13.586;2023-06-14T17:30:41;97922.16;;;24.27;37.93
43155;BME280;34212;51.018;13.586;2023-06-14T17:35:43;97929.94;;;23.97;38.27
43155;BME280;34212;51.018;13.586;2023-06-14T17:40:45;97923.75;;;23.70;38.61
43155;BME280;34212;51.018;13.586;2023-06-14T17:45:51;97926.84;;;23.51;38.70
43155;BME280;34212;51.018;13.586;2023-06-14T17:50:53;97920.22;;;23.37;38.64
43155;BME280;34212;51.018;13.586;2023-06-14T17:55:54;97924.44;;;23.18;38.63
43155;BME280;34212;51.018;13.586;2023-06-14T18:00:56;97926.94;;;22.97;38.62
43155;BME280;34212;51.018;13.586;2023-06-14T18:05:57;97932.13;;;22.77;38.81
43155;BME280;34212;51.018;13.586;2023-06-14T18:11:00;97942.28;;;22.59;38.93
43155;BME280;34212;51.018;13.586;2023-06-14T18:16:02;97941.78;;;22.41;39.02
43155;BME280;34212;51.018;13.586;2023-06-14T18:21:05;97937.78;;;22.26;39.03
43155;BME280;34212;51.018;13.586;2023-06-14T18:26:11;97946.00;;;22.14;39.09
43155;BME280;34212;51.018;13.586;2023-06-14T18:31:12;97951.00;;;22.01;39.10
43155;BME280;34212;51.018;13.586;2023-06-14T18:36:17;97953.97;;;21.82;39.11
43155;BME280;34212;51.018;13.586;2023-06-14T18:41:22;97960.00;;;21.67;39.19
43155;BME280;34212;51.018;13.586;2023-06-14T18:46:23;97957.63;;;21.54;39.32
43155;BME280;34212;51.018;13.586;2023-06-14T18:51:28;97953.56;;;21.40;39.34
43155;BME280;34212;51.018;13.586;2023-06-14T18:56:31;97962.00;;;21.27;39.53
43155;BME280;34212;51.018;13.586;2023-06-14T19:01:33;97956.91;;;21.13;39.67
43155;BME280;34212;51.018;13.586;2023-06-14T19:06:35;97962.16;;;21.03;39.66
43155;BME280;34212;51.018;13.586;2023-06-14T19:11:36;97966.88;;;20.96;39.55
43155;BME280;34212;51.018;13.586;2023-06-14T19:16:38;97959.22;;;20.93;39.69
43155;BME280;34212;51.018;13.586;2023-06-14T19:21:39;97965.72;;;20.92;39.71
43155;BME280;34212;51.018;13.586;2023-06-14T19:26:41;97974.44;;;20.94;39.76
43155;BME280;34212;51.018;13.586;2023-06-14T19:31:43;97972.56;;;20.94;39.87
43155;BME280;34212;51.018;13.586;2023-06-14T19:36:45;97974.81;;;20.86;39.77
43155;BME280;34212;51.018;13.586;2023-06-14T19:41:46;97979.47;;;20.73;40.01
43155;BME280;34212;51.018;13.586;2023-06-14T19:46:48;97985.16;;;20.60;40.04
43155;BME280;34212;51.018;13.586;2023-06-14T19:51:49;97986.13;;;20.54;40.11
43155;BME280;34212;51.018;13.586;2023-06-14T19:56:50;97989.75;;;20.48;40.13
43155;BME280;34212;51.018;13.586;2023-06-14T20:01:52;97993.91;;;20.39;40.36
43155;BME280;34212;51.018;13.586;2023-06-14T20:06:54;98002.75;;;20.22;40.40
43155;BME280;34212;51.018;13.586;2023-06-14T20:11:59;98004.53;;;20.05;40.62
43155;BME280;34212;51.018;13.586;2023-06-14T20:17:00;98001.13;;;19.86;40.82
43155;BME280;34212;51.018;13.586;2023-06-14T20:22:02;98007.56;;;19.73;40.99
43155;BME280;34212;51.018;13.586;2023-06-14T20:27:04;98014.00;;;19.60;41.00
43155;BME280;34212;51.018;13.586;2023-06-14T20:32:07;98017.13;;;19.46;41.13
43155;BME280;34212;51.018;13.586;2023-06-14T20:37:09;98007.00;;;19.29;41.19
43155;BME280;34212;51.018;13.586;2023-06-14T20:42:10;98006.34;;;19.15;41.24
43155;BME280;34212;51.018;13.586;2023-06-14T20:47:30;98010.31;;;19.01;41.46
43155;BME280;34212;51.018;13.586;2023-06-14T20:52:32;98014.00;;;18.88;41.35
43155;BME280;34212;51.018;13.586;2023-06-14T20:57:33;98013.94;;;18.77;41.58
43155;BME280;34212;51.018;13.586;2023-06-14T21:02:39;98008.59;;;18.70;41.74
43155;BME280;34212;51.018;13.586;2023-06-14T21:07:41;98003.75;;;18.60;41.78
43155;BME280;34212;51.018;13.586;2023-06-14T21:12:43;98010.88;;;18.55;41.81
43155;BME280;34212;51.018;13.586;2023-06-14T21:17:45;98012.59;;;18.49;41.99
43155;BME280;34212;51.018;13.586;2023-06-14T21:22:46;98010.94;;;18.48;41.90
43155;BME280;34212;51.018;13.586;2023-06-14T21:27:49;98011.25;;;18.40;42.15
43155;BME280;34212;51.018;13.586;2023-06-14T21:32:50;98012.66;;;18.24;42.39
43155;BME280;34212;51.018;13.586;2023-06-14T21:37:52;98011.75;;;18.12;42.53
43155;BME280;34212;51.018;13.586;2023-06-14T21:42:53;98016.22;;;17.99;42.43
43155;BME280;34212;51.018;13.586;2023-06-14T21:47:54;98014.47;;;17.87;43.18
43155;BME280;34212;51.018;13.586;2023-06-14T21:52:56;98013.34;;;17.69;43.68
43155;BME280;34212;51.018;13.586;2023-06-14T21:57:57;98009.94;;;17.55;43.61
43155;BME280;34212;51.018;13.586;2023-06-14T22:02:59;98001.97;;;17.42;43.57
43155;BME280;34212;51.018;13.586;2023-06-14T22:08:00;98009.09;;;17.30;43.95
43155;BME280;34212;51.018;13.586;2023-06-14T22:13:02;97998.41;;;17.17;43.85
43155;BME280;34212;51.018;13.586;2023-06-14T22:18:03;98008.81;;;17.06;43.90
43155;BME280;34212;51.018;13.586;2023-06-14T22:23:05;98013.66;;;16.98;43.76
43155;BME280;34212;51.018;13.586;2023-06-14T22:28:09;98011.81;;;16.92;44.00
43155;BME280;34212;51.018;13.586;2023-06-14T22:33:10;98016.78;;;16.88;43.93
43155;BME280;34212;51.018;13.586;2023-06-14T22:38:11;98009.38;;;16.83;43.67
43155;BME280;34212;51.018;13.586;2023-06-14T22:43:13;98006.47;;;16.78;44.16
43155;BME280;34212;51.018;13.586;2023-06-14T22:48:14;98013.75;;;16.71;44.02
43155;BME280;34212;51.018;13.586;2023-06-14T22:53:15;98003.19;;;16.63;44.06
43155;BME280;34212;51.018;13.586;2023-06-14T22:58:18;98006.59;;;16.52;43.93
43155;BME280;34212;51.018;13.586;2023-06-14T23:03:20;98005.16;;;16.43;44.61
43155;BME280;34212;51.018;13.586;2023-06-14T23:08:21;98011.59;;;16.35;44.30
43155;BME280;34212;51.018;13.586;2023-06-14T23:13:23;98016.16;;;16.28;44.24
43155;BME280;34212;51.018;13.586;2023-06-14T23:18:24;98013.28;;;16.23;44.32
43155;BME280;34212;51.018;13.586;2023-06-14T23:23:25;98013.69;;;16.20;45.15
43155;BME280;34212;51.018;13.586;2023-06-14T23:28:28;98016.22;;;16.14;45.62
43155;BME280;34212;51.018;13.586;2023-06-14T23:33:34;98013.31;;;16.09;46.01
43155;BME280;34212;51.018;13.586;2023-06-14T23:38:36;98014.78;;;16.05;45.94
43155;BME280;34212;51.018;13.586;2023-06-14T23:43:43;98008.59;;;16.05;45.68
43155;BME280;34212;51.018;13.586;2023-06-14T23:48:47;97999.03;;;16.09;45.94
43155;BME280;34212;51.018;13.586;2023-06-14T23:53:48;98003.38;;;16.10;45.62
43155;BME280;34212;51.018;13.586;2023-06-14T23:58:50;98003.19;;;16.05;45.41
